createdAt,value
2018-06-08T00:04:51.888Z,3.77
2018-06-08T00:09:55.219Z,3.47
2018-06-08T00:14:58.827Z,3.87
2018-06-08T00:20:02.382Z,3.92
2018-06-08T00:25:05.807Z,4.12
2018-06-08T00:30:09.421Z,3.58
2018-06-08T00:35:13.084Z,3.47
2018-06-08T00:40:16.612Z,3.65
2018-06-08T00:45:20.015Z,3.87
2018-06-08T00:50:23.402Z,3.30
2018-06-08T00:55:26.812Z,3.90
2018-06-08T01:00:30.310Z,3.90
2018-06-08T01:05:34.683Z,3.72
2018-06-08T01:10:38.304Z,3.70
2018-06-08T01:15:42.112Z,3.90
2018-06-08T01:20:45.587Z,3.47
2018-06-08T01:25:49.076Z,4.10
2018-06-08T01:30:52.515Z,4.12
2018-06-08T01:35:55.877Z,3.92
2018-06-08T01:40:59.038Z,3.72
2018-06-08T01:46:02.512Z,3.87
2018-06-08T01:51:06.300Z,3.83
2018-06-08T01:56:09.868Z,4.30
2018-06-08T02:01:13.532Z,4.08
2018-06-08T02:06:16.904Z,3.72
2018-06-08T02:11:20.425Z,3.65
2018-06-08T02:16:24.059Z,4.20
2018-06-08T02:21:27.321Z,4.30
2018-06-08T02:26:31.093Z,3.52
2018-06-08T02:31:34.361Z,3.72
2018-06-08T02:36:37.807Z,4.00
2018-06-08T02:41:41.196Z,4.08
2018-06-08T02:46:44.665Z,3.70
2018-06-08T02:51:48.324Z,4.12
2018-06-08T02:56:51.857Z,3.92
2018-06-08T03:01:55.396Z,4.28
2018-06-08T03:07:00.208Z,3.75
2018-06-08T03:12:03.604Z,4.28
2018-06-08T03:17:07.101Z,4.05
2018-06-08T03:22:10.485Z,3.95
2018-06-08T03:27:14.171Z,3.60
2018-06-08T03:32:17.459Z,4.05
2018-06-08T03:37:20.805Z,3.60
2018-06-08T03:42:24.373Z,3.52
2018-06-08T03:47:27.767Z,3.72
2018-06-08T03:52:31.243Z,3.77
2018-06-08T03:57:34.812Z,3.83
2018-06-08T04:02:38.229Z,3.80
2018-06-08T04:07:41.651Z,3.65
2018-06-08T04:12:44.741Z,4.10
2018-06-08T04:17:48.013Z,4.28
2018-06-08T04:22:51.303Z,4.50
2018-06-08T04:27:54.416Z,4.17
2018-06-08T04:32:57.796Z,4.80
2018-06-08T04:38:01.513Z,4.33
2018-06-08T04:43:04.807Z,4.40
2018-06-08T04:48:07.852Z,5.00
2018-06-08T04:53:11.155Z,4.60
2018-06-08T04:58:14.625Z,5.15
2018-06-08T05:03:17.868Z,5.45
2018-06-08T05:08:20.991Z,5.30
2018-06-08T05:13:24.204Z,5.20
2018-06-08T05:18:27.485Z,5.03
2018-06-08T05:23:30.555Z,5.72
2018-06-08T05:28:34.101Z,7.12
2018-06-08T05:33:37.499Z,6.10
2018-06-08T05:38:40.777Z,5.45
2018-06-08T05:43:43.896Z,5.83
2018-06-08T05:48:47.496Z,5.53
2018-06-08T05:53:51.340Z,7.33
2018-06-08T05:58:54.553Z,6.33
2018-06-08T06:03:58.087Z,7.15
2018-06-08T06:09:02.069Z,7.17
2018-06-08T06:14:05.442Z,6.50
2018-06-08T06:19:08.564Z,7.30
2018-06-08T06:24:12.471Z,6.58
2018-06-08T06:29:15.777Z,7.97
2018-06-08T06:34:19.028Z,6.00
2018-06-08T06:39:22.133Z,6.58
2018-06-08T06:44:25.700Z,6.55
2018-06-08T06:49:29.261Z,7.55
2018-06-08T06:54:32.508Z,7.90
2018-06-08T06:59:35.929Z,7.60
2018-06-08T07:04:39.381Z,7.47
2018-06-08T07:09:42.792Z,7.08
2018-06-08T07:14:46.103Z,6.85
2018-06-08T07:19:49.408Z,8.38
2018-06-08T07:24:52.935Z,7.33
2018-06-08T07:29:56.567Z,6.97
2018-06-08T07:34:59.785Z,6.78
2018-06-08T07:40:03.059Z,9.58
2018-06-08T07:45:06.356Z,7.20
2018-06-08T07:50:10.111Z,6.67
2018-06-08T07:55:13.735Z,6.20
2018-06-08T08:00:17.025Z,6.37
2018-06-08T08:05:20.090Z,6.58
2018-06-08T08:10:23.873Z,5.72
2018-06-08T08:15:28.621Z,6.30
2018-06-08T08:20:32.201Z,6.12
2018-06-08T08:25:36.003Z,6.42
2018-06-08T08:30:39.616Z,5.58
2018-06-08T08:40:57.905Z,5.72
2018-06-08T08:46:01.562Z,5.97
2018-06-08T08:51:04.991Z,6.10
2018-06-08T08:56:08.701Z,5.87
2018-06-08T09:01:12.102Z,5.75
2018-06-08T09:06:15.676Z,6.03
2018-06-08T09:11:19.076Z,5.65
2018-06-08T09:16:22.466Z,5.53
2018-06-08T09:21:26.126Z,5.67
2018-06-08T09:26:30.274Z,5.42
2018-06-08T09:31:34.668Z,4.83
2018-06-08T09:36:38.498Z,4.80
2018-06-08T09:41:42.093Z,4.83
2018-06-08T09:46:45.264Z,4.67
2018-06-08T09:51:48.413Z,4.78
2018-06-08T09:56:51.988Z,4.90
2018-06-08T10:01:55.632Z,5.05
2018-06-08T10:06:59.093Z,5.72
2018-06-08T10:12:02.445Z,5.10
2018-06-08T10:17:05.751Z,5.28
2018-06-08T10:22:08.873Z,4.97
2018-06-08T10:27:11.911Z,4.90
2018-06-08T10:32:14.963Z,4.80
2018-06-08T10:37:18.382Z,5.20
2018-06-08T10:42:21.502Z,4.90
2018-06-08T10:47:24.593Z,5.33
2018-06-08T10:52:27.772Z,5.30
2018-06-08T10:57:31.709Z,5.47
2018-06-08T11:02:35.636Z,4.97
2018-06-08T11:07:39.236Z,5.40
2018-06-08T11:12:42.768Z,5.67
2018-06-08T11:17:46.072Z,5.17
2018-06-08T11:22:49.700Z,5.28
2018-06-08T11:27:53.228Z,5.40
2018-06-08T11:32:56.453Z,5.25
2018-06-08T11:37:59.671Z,4.80
2018-06-08T11:43:02.983Z,5.37
2018-06-08T11:48:06.410Z,5.20
2018-06-08T11:53:10.024Z,5.37
2018-06-08T11:58:13.180Z,5.47
2018-06-08T12:03:17.144Z,5.47
2018-06-08T12:08:20.416Z,5.08
2018-06-08T12:13:24.004Z,4.95
2018-06-08T12:18:27.414Z,5.35
2018-06-08T12:23:31.238Z,4.67
2018-06-08T12:28:34.683Z,4.62
2018-06-08T12:33:37.799Z,4.80
2018-06-08T12:38:41.342Z,4.92
2018-06-08T12:43:44.774Z,4.00
2018-06-08T12:48:48.141Z,4.50
2018-06-08T12:53:51.739Z,4.65
2018-06-08T12:58:55.219Z,5.25
2018-06-08T13:03:58.897Z,4.28
2018-06-08T13:09:03.157Z,4.75
2018-06-08T13:14:06.572Z,4.50
2018-06-08T13:19:09.952Z,4.60
2018-06-08T13:24:13.199Z,4.50
2018-06-08T13:29:16.564Z,4.70
2018-06-08T13:34:19.931Z,4.67
2018-06-08T13:39:23.349Z,4.65
2018-06-08T13:44:27.118Z,5.05
2018-06-08T13:49:30.267Z,4.42
2018-06-08T13:54:33.733Z,4.05
2018-06-08T13:59:37.390Z,4.75
2018-06-08T14:04:40.656Z,4.70
2018-06-08T14:09:44.274Z,5.03
2018-06-08T14:14:48.304Z,4.40
2018-06-08T14:19:52.848Z,4.95
2018-06-08T14:24:55.887Z,4.83
2018-06-08T14:29:59.425Z,4.30
2018-06-08T14:35:02.595Z,4.60
2018-06-08T14:40:05.954Z,4.78
2018-06-08T14:45:10.322Z,4.58
2018-06-08T14:50:14.020Z,4.58
2018-06-08T14:55:17.152Z,4.70
2018-06-08T15:00:20.519Z,5.10
2018-06-08T15:05:23.740Z,4.90
2018-06-08T15:10:27.284Z,4.20
2018-06-08T15:15:31.838Z,5.08
2018-06-08T15:20:34.935Z,4.17
2018-06-08T15:25:39.322Z,4.83
2018-06-08T15:30:43.036Z,4.28
2018-06-08T15:35:46.689Z,5.60
2018-06-08T15:40:49.924Z,5.65
2018-06-08T15:45:53.211Z,5.55
2018-06-08T15:50:56.464Z,5.05
2018-06-08T15:56:00.121Z,5.70
2018-06-08T16:01:03.911Z,4.70
2018-06-08T16:06:07.615Z,4.58
2018-06-08T16:11:11.219Z,5.00
2018-06-08T16:16:14.477Z,4.85
2018-06-08T16:21:17.877Z,4.87
2018-06-08T16:26:21.288Z,4.67
2018-06-08T16:31:25.441Z,4.70
2018-06-08T16:36:28.915Z,4.42
2018-06-08T16:41:32.766Z,4.60
2018-06-08T16:46:36.263Z,4.35
2018-06-08T16:51:39.471Z,4.20
2018-06-08T16:56:43.824Z,4.25
2018-06-08T17:01:47.208Z,4.37
2018-06-08T17:06:50.851Z,4.85
2018-06-08T17:11:54.639Z,4.95
2018-06-08T17:16:58.177Z,4.70
2018-06-08T17:22:04.860Z,4.40
2018-06-08T17:27:08.331Z,4.22
2018-06-08T17:32:12.479Z,4.15
2018-06-08T17:48:02.968Z,4.95
2018-06-08T17:53:07.561Z,4.20
2018-06-08T17:58:11.036Z,4.10
2018-06-08T18:03:14.239Z,4.92
2018-06-08T18:08:17.275Z,4.17
2018-06-08T18:13:20.664Z,4.05
2018-06-08T18:18:23.806Z,4.25
2018-06-08T18:23:35.769Z,4.33
2018-06-08T18:28:40.244Z,4.40
2018-06-08T18:33:44.284Z,4.90
2018-06-08T18:38:48.127Z,5.30
2018-06-08T18:43:53.960Z,5.72
2018-06-08T18:49:04.618Z,5.60
2018-06-08T19:32:20.111Z,6.20
2018-06-08T19:37:23.918Z,7.10
2018-06-08T19:42:28.052Z,6.75
2018-06-08T19:47:32.090Z,6.28
2018-06-08T19:52:35.792Z,7.53
2018-06-08T19:57:40.267Z,7.30
2018-06-08T20:02:43.724Z,6.45
2018-06-08T20:07:47.126Z,6.97
2018-06-08T20:12:51.629Z,7.92
2018-06-08T20:17:55.300Z,8.40
2018-06-08T20:22:59.711Z,8.75
2018-06-08T20:28:03.178Z,10.38
2018-06-08T20:33:07.181Z,9.60
2018-06-08T20:38:11.049Z,11.00
2018-06-08T20:43:14.787Z,10.32
2018-06-08T20:48:18.451Z,10.38
2018-06-08T20:53:22.165Z,9.70
2018-06-08T20:58:27.984Z,9.18
2018-06-08T21:03:31.698Z,9.58
2018-06-08T21:08:35.164Z,8.78
2018-06-08T21:13:38.850Z,9.70
2018-06-08T21:18:42.427Z,8.15
2018-06-08T21:23:46.100Z,9.45
2018-06-08T21:28:49.792Z,9.25
2018-06-08T21:33:53.077Z,9.85
2018-06-08T21:38:56.697Z,10.10
2018-06-08T21:44:00.272Z,9.28
2018-06-08T21:49:03.664Z,8.70
2018-06-08T21:54:06.873Z,7.80
2018-06-08T21:59:10.504Z,8.80
2018-06-08T22:04:14.100Z,8.08
2018-06-08T22:09:19.017Z,8.70
2018-06-08T22:14:22.482Z,9.05
2018-06-08T22:19:26.558Z,8.63
2018-06-08T22:24:29.892Z,8.95
2018-06-08T22:29:33.356Z,8.30
2018-06-08T22:34:36.827Z,9.00
2018-06-08T22:39:40.140Z,9.00
2018-06-08T22:44:43.835Z,8.98
2018-06-08T22:49:47.198Z,9.00
2018-06-08T22:54:50.655Z,8.28
2018-06-08T22:59:54.336Z,8.10
2018-06-08T23:04:57.995Z,8.38
2018-06-08T23:10:03.977Z,8.40
2018-06-08T23:15:07.478Z,8.15
2018-06-08T23:20:11.137Z,8.60
2018-06-08T23:25:14.419Z,8.38
2018-06-08T23:30:17.828Z,7.65
2018-06-08T23:35:21.600Z,8.50
2018-06-08T23:40:24.851Z,8.03
2018-06-08T23:45:28.232Z,7.33
2018-06-08T23:50:31.628Z,7.70
2018-06-08T23:55:34.917Z,7.80
